createdAt,value
2016-03-25T00:00:35.681Z,50.41
2016-03-25T00:01:35.684Z,50.6
2016-03-25T00:02:35.703Z,50.98
2016-03-25T00:03:35.737Z,51.07
2016-03-25T00:04:35.724Z,50.41
2016-03-25T00:05:35.757Z,50.31
2016-03-25T00:06:35.744Z,50.22
2016-03-25T00:07:35.771Z,51.07
2016-03-25T00:08:35.788Z,50.98
2016-03-25T00:09:35.790Z,50.31
2016-03-25T00:10:35.809Z,50.22
2016-03-25T00:11:35.812Z,50.51
2016-03-25T00:12:35.831Z,50.7
2016-03-25T00:13:35.833Z,50.6
2016-03-25T00:14:35.836Z,50.12
2016-03-25T00:15:35.870Z,50.7
2016-03-25T00:16:35.872Z,50.89
2016-03-25T00:17:35.875Z,51.36
2016-03-25T00:18:35.878Z,50.6
2016-03-25T00:19:35.896Z,50.6
2016-03-25T00:20:35.945Z,50.7
2016-03-25T00:21:35.917Z,50.79
2016-03-25T00:22:35.825Z,51.55
2016-03-25T00:23:35.953Z,51.36
2016-03-25T00:24:35.956Z,51.45
2016-03-25T00:25:35.958Z,50.41
2016-03-25T00:26:35.977Z,50.79
2016-03-25T00:27:35.980Z,50.89
2016-03-25T00:28:35.998Z,51.36
2016-03-25T00:29:36.017Z,50.89
2016-03-25T00:30:36.019Z,50.79
2016-03-25T00:31:36.053Z,50.79
2016-03-25T00:32:36.056Z,50.41
2016-03-25T00:33:35.902Z,51.07
2016-03-25T00:34:36.077Z,50.89
2016-03-25T00:35:36.080Z,50.89
2016-03-25T00:36:36.098Z,50.7
2016-03-25T00:37:36.132Z,50.7
2016-03-25T00:38:36.118Z,51.17
2016-03-25T00:39:36.137Z,51.07
2016-03-25T00:40:36.140Z,51.17
2016-03-25T00:41:36.158Z,50.98
2016-03-25T00:42:36.176Z,51.07
2016-03-25T00:43:36.164Z,50.31
2016-03-25T00:44:36.181Z,50.12
2016-03-25T00:45:36.201Z,50.12
2016-03-25T00:46:36.219Z,50.12
2016-03-25T00:47:36.221Z,49.84
2016-03-25T00:48:36.240Z,50.31
2016-03-25T00:49:36.242Z,50.22
2016-03-25T00:50:36.244Z,50.12
2016-03-25T00:51:36.123Z,50.22
2016-03-25T00:52:36.297Z,50.12
2016-03-25T00:53:36.300Z,49.37
2016-03-25T00:54:36.303Z,49.27
2016-03-25T00:55:36.321Z,50.03
2016-03-25T00:56:36.339Z,50.12
2016-03-25T00:57:36.326Z,50.03
2016-03-25T00:58:36.344Z,49.93
2016-03-25T00:59:36.362Z,49.93
2016-03-25T01:00:36.413Z,49.84
2016-03-25T01:01:36.384Z,49.84
2016-03-25T01:02:36.402Z,50.41
2016-03-25T01:03:36.405Z,50.31
2016-03-25T01:04:36.408Z,50.03
2016-03-25T01:05:36.426Z,49.74
2016-03-25T01:06:36.444Z,50.12
2016-03-25T01:07:36.479Z,50.12
2016-03-25T01:08:36.465Z,50.12
2016-03-25T01:09:36.468Z,49.74
2016-03-25T01:10:36.518Z,49.84
2016-03-25T01:11:36.489Z,50.12
2016-03-25T01:12:36.507Z,50.12
2016-03-25T01:13:36.525Z,50.51
2016-03-25T01:14:36.544Z,49.93
2016-03-25T01:15:36.547Z,50.22
2016-03-25T01:16:36.550Z,50.79
2016-03-25T01:17:36.568Z,50.6
2016-03-25T01:18:36.586Z,49.93
2016-03-25T01:19:36.589Z,50.31
2016-03-25T01:20:36.592Z,50.03
2016-03-25T01:21:36.625Z,50.03
2016-03-25T01:22:36.628Z,50.03
2016-03-25T01:23:36.646Z,49.93
2016-03-25T01:24:36.649Z,50.03
2016-03-25T01:25:36.652Z,50.22
2016-03-25T01:26:36.686Z,50.51
2016-03-25T01:27:36.688Z,49.93
2016-03-25T01:28:36.691Z,50.89
2016-03-25T01:29:36.724Z,50.41
2016-03-25T01:30:36.728Z,51.36
2016-03-25T01:31:36.730Z,51.83
2016-03-25T01:32:36.749Z,51.26
2016-03-25T01:33:36.751Z,51.07
2016-03-25T01:34:36.769Z,50.89
2016-03-25T01:35:36.772Z,51.45
2016-03-25T01:36:36.775Z,51.55
2016-03-25T01:37:36.793Z,52.09
2016-03-25T01:38:36.827Z,51.52
2016-03-25T01:39:36.814Z,51.55
2016-03-25T01:40:36.832Z,52.09
2016-03-25T01:41:36.835Z,52.02
2016-03-25T01:42:36.870Z,52.31
2016-03-25T01:43:36.856Z,51.64
2016-03-25T01:44:36.875Z,51.07
2016-03-25T01:45:36.878Z,51.64
2016-03-25T01:46:36.895Z,52.12
2016-03-25T01:47:36.914Z,52.12
2016-03-25T01:48:36.917Z,51.55
2016-03-25T01:49:36.934Z,51.74
2016-03-25T01:50:36.953Z,51.55
2016-03-25T01:51:36.956Z,51.83
2016-03-25T01:52:36.958Z,52.02
2016-03-25T01:53:36.977Z,52.5
2016-03-25T01:54:36.995Z,52.76
2016-03-25T01:55:36.997Z,52.4
2016-03-25T01:56:37.188Z,52.22
2016-03-25T01:57:37.035Z,51.93
2016-03-25T01:58:37.038Z,52.69
2016-03-25T01:59:37.055Z,53.35
2016-03-25T02:00:37.074Z,52.69
2016-03-25T02:01:37.061Z,52.69
2016-03-25T02:02:37.080Z,53.26
2016-03-25T02:03:37.097Z,52.5
2016-03-25T02:04:37.115Z,52.69
2016-03-25T02:05:37.118Z,52.69
2016-03-25T02:06:37.121Z,53.35
2016-03-25T02:07:37.124Z,53.54
2016-03-25T02:08:37.157Z,53.35
2016-03-25T02:09:37.160Z,53.16
2016-03-25T02:10:37.163Z,52.87
2016-03-25T02:11:37.181Z,53.07
2016-03-25T02:12:37.184Z,53.07
2016-03-25T02:13:37.203Z,53.16
2016-03-25T02:14:37.220Z,53.45
2016-03-25T02:15:37.224Z,52.87
2016-03-25T02:16:37.226Z,52.87
2016-03-25T02:17:37.244Z,52.97
2016-03-25T02:18:37.295Z,51.83
2016-03-25T02:19:37.281Z,52.31
2016-03-25T02:20:37.283Z,52.69
2016-03-25T02:21:37.287Z,52.69
2016-03-25T02:22:37.305Z,52.5
2016-03-25T02:23:37.308Z,52.87
2016-03-25T02:24:37.325Z,53.16
2016-03-25T02:25:37.360Z,52.97
2016-03-25T02:26:37.347Z,53.45
2016-03-25T02:27:37.365Z,53.26
2016-03-25T02:28:37.383Z,53.26
2016-03-25T02:29:37.385Z,53.45
2016-03-25T02:30:37.404Z,54.02
2016-03-25T02:31:37.408Z,53.45
2016-03-25T02:32:37.441Z,53.07
2016-03-25T02:33:37.427Z,53.07
2016-03-25T02:34:37.431Z,53.54
2016-03-25T02:35:37.449Z,52.59
2016-03-25T02:36:37.451Z,52.69
2016-03-25T02:37:37.470Z,52.87
2016-03-25T02:38:37.488Z,52.87
2016-03-25T02:39:37.507Z,52.78
2016-03-25T02:40:37.510Z,52.97
2016-03-25T02:41:37.528Z,52.22
2016-03-25T02:42:37.531Z,52.87
2016-03-25T02:43:37.549Z,52.91
2016-03-25T02:44:37.551Z,51.95
2016-03-25T02:45:37.553Z,51.93
2016-03-25T02:46:37.587Z,52.81
2016-03-25T02:47:37.582Z,52.91
2016-03-25T02:48:37.570Z,53
2016-03-25T02:49:37.574Z,53.19
2016-03-25T02:50:37.577Z,52.91
2016-03-25T02:51:37.565Z,52.53
2016-03-25T02:52:37.573Z,52.62
2016-03-25T02:53:37.570Z,53
2016-03-25T02:54:37.584Z,53.35
2016-03-25T02:55:37.581Z,52.97
2016-03-25T02:56:37.595Z,52.78
2016-03-25T02:57:37.593Z,52.62
2016-03-25T02:58:37.609Z,52.72
2016-03-25T02:59:37.610Z,52.81
2016-03-25T03:00:37.658Z,52.72
2016-03-25T03:01:37.658Z,52.81
2016-03-25T03:02:37.660Z,52.81
2016-03-25T03:03:37.662Z,52.81
2016-03-25T03:04:37.680Z,52.53
2016-03-25T03:05:37.697Z,52.53
2016-03-25T03:06:37.698Z,52.53
2016-03-25T03:07:37.716Z,53
2016-03-25T03:08:37.735Z,51.95
2016-03-25T03:09:37.737Z,52.33
2016-03-25T03:10:37.739Z,52.81
2016-03-25T03:11:37.742Z,52.91
2016-03-25T03:12:37.759Z,53
2016-03-25T03:13:37.778Z,52.53
2016-03-25T03:14:37.781Z,52.05
2016-03-25T03:15:37.798Z,52.72
2016-03-25T03:16:37.817Z,52.81
2016-03-25T03:17:37.820Z,52.91
2016-03-25T03:18:37.822Z,53.54
2016-03-25T03:19:37.856Z,53.26
2016-03-25T03:20:37.859Z,52.91
2016-03-25T03:21:37.862Z,52.81
2016-03-25T03:22:37.880Z,53.35
2016-03-25T03:23:37.899Z,52.87
2016-03-25T03:24:37.902Z,52.87
2016-03-25T03:25:37.919Z,52.78
2016-03-25T03:26:37.922Z,52.97
2016-03-25T03:27:37.925Z,53.54
2016-03-25T03:28:37.958Z,53.64
2016-03-25T03:29:37.994Z,53.54
2016-03-25T03:30:37.965Z,54.02
2016-03-25T03:31:37.983Z,53.64
2016-03-25T03:32:37.986Z,53.54
2016-03-25T03:33:38.020Z,53.92
2016-03-25T03:34:38.022Z,53.54
2016-03-25T03:35:38.025Z,53.35
2016-03-25T03:36:38.075Z,54.02
2016-03-25T03:37:38.062Z,54.02
2016-03-25T03:38:38.066Z,54.3
2016-03-25T03:39:38.083Z,53.83
2016-03-25T03:40:38.101Z,53.83
2016-03-25T03:41:38.089Z,54.02
2016-03-25T03:42:38.122Z,54.3
2016-03-25T03:43:38.124Z,54.02
2016-03-25T03:44:38.128Z,54.39
2016-03-25T03:45:38.146Z,54.58
2016-03-25T03:46:38.149Z,54.3
2016-03-25T03:47:38.168Z,54.21
2016-03-25T03:48:38.185Z,54.97
2016-03-25T03:49:38.188Z,54.68
2016-03-25T03:50:38.206Z,53.83
2016-03-25T03:51:38.209Z,55.25
2016-03-25T03:52:38.228Z,55.16
2016-03-25T03:53:38.230Z,54.78
2016-03-25T03:54:38.249Z,54.87
2016-03-25T03:55:38.267Z,54.97
2016-03-25T03:56:38.284Z,54.87
2016-03-25T03:57:38.288Z,55.06
2016-03-25T03:58:38.290Z,54.87
2016-03-25T03:59:38.309Z,54.97
2016-03-25T04:00:38.327Z,54.49
2016-03-25T04:01:38.330Z,55.63
2016-03-25T04:02:38.348Z,55.25
2016-03-25T04:03:38.194Z,55.35
2016-03-25T04:04:38.353Z,54.97
2016-03-25T04:05:38.372Z,55.44
2016-03-25T04:06:38.375Z,55.44
2016-03-25T04:07:38.393Z,55.44
2016-03-25T04:08:38.395Z,55.06
2016-03-25T04:09:38.414Z,55.16
2016-03-25T04:10:38.432Z,55.25
2016-03-25T04:11:38.450Z,55.25
2016-03-25T04:12:38.438Z,55.54
2016-03-25T04:13:38.471Z,56.01
2016-03-25T04:14:38.474Z,55.35
2016-03-25T04:15:38.477Z,55.25
2016-03-25T04:16:38.495Z,55.44
2016-03-25T04:17:38.513Z,55.54
2016-03-25T04:18:38.516Z,55.44
2016-03-25T04:19:38.535Z,55.82
2016-03-25T04:20:38.537Z,55.44
2016-03-25T04:21:38.556Z,55.25
2016-03-25T04:22:38.558Z,55.44
2016-03-25T04:23:38.577Z,55.82
2016-03-25T04:24:38.595Z,55.54
2016-03-25T04:25:38.597Z,55.44
2016-03-25T04:26:38.615Z,55.44
2016-03-25T04:27:38.634Z,55.54
2016-03-25T04:28:38.621Z,55.25
2016-03-25T04:29:38.639Z,55.35
2016-03-25T04:30:38.658Z,55.44
2016-03-25T04:31:38.676Z,55.35
2016-03-25T04:32:38.678Z,55.82
2016-03-25T04:33:38.681Z,55.54
2016-03-25T04:34:38.700Z,55.63
2016-03-25T04:35:38.702Z,56.29
2016-03-25T04:36:38.722Z,55.54
2016-03-25T04:37:38.724Z,55.82
2016-03-25T04:38:38.741Z,54.97
2016-03-25T04:39:38.745Z,55.25
2016-03-25T04:40:38.763Z,55.22
2016-03-25T04:41:38.765Z,55.41
2016-03-25T04:42:38.783Z,55.44
2016-03-25T04:43:38.802Z,55.82
2016-03-25T04:44:38.805Z,55.63
2016-03-25T04:45:38.824Z,55.63
2016-03-25T04:46:38.826Z,56.01
2016-03-25T04:47:38.843Z,55.44
2016-03-25T04:48:38.847Z,55.79
2016-03-25T04:49:38.865Z,55.44
2016-03-25T04:50:38.883Z,55.16
2016-03-25T04:51:38.887Z,55.6
2016-03-25T04:52:38.889Z,55.32
2016-03-25T04:53:38.907Z,55.41
2016-03-25T04:54:38.957Z,55.54
2016-03-25T04:55:38.928Z,55.63
2016-03-25T04:56:38.993Z,55.44
2016-03-25T04:57:38.948Z,55.16
2016-03-25T04:58:38.952Z,55.44
2016-03-25T04:59:38.970Z,55.51
2016-03-25T05:00:38.989Z,56.27
2016-03-25T05:01:39.023Z,55.51
2016-03-25T05:02:39.009Z,55.51
2016-03-25T05:03:39.012Z,55.54
2016-03-25T05:04:39.030Z,55.91
2016-03-25T05:05:39.033Z,55.04
2016-03-25T05:06:39.051Z,54.94
2016-03-25T05:07:39.194Z,54.94
2016-03-25T05:08:39.090Z,55.41
2016-03-25T05:09:39.077Z,54.78
2016-03-25T05:10:39.095Z,54.97
2016-03-25T05:11:39.113Z,55.04
2016-03-25T05:12:39.115Z,55.54
2016-03-25T05:13:39.134Z,55.16
2016-03-25T05:14:39.137Z,55.06
2016-03-25T05:15:39.326Z,54.78
2016-03-25T05:16:39.158Z,55.16
2016-03-25T05:17:39.175Z,55.16
2016-03-25T05:18:39.194Z,55.63
2016-03-25T05:19:39.197Z,54.87
2016-03-25T05:20:39.230Z,54.97
2016-03-25T05:21:39.233Z,55.35
2016-03-25T05:22:39.236Z,55.16
2016-03-25T05:23:39.238Z,54.97
2016-03-25T05:24:39.241Z,54.87
2016-03-25T05:25:39.260Z,54.68
2016-03-25T05:26:39.278Z,54.39
2016-03-25T05:27:39.280Z,54.78
2016-03-25T05:28:39.299Z,54.97
2016-03-25T05:29:39.318Z,54.87
2016-03-25T05:30:39.321Z,54.78
2016-03-25T05:31:39.323Z,54.68
2016-03-25T05:32:39.341Z,54.39
2016-03-25T05:33:39.344Z,53.54
2016-03-25T05:34:39.362Z,53.83
2016-03-25T05:35:39.396Z,54.39
2016-03-25T05:36:39.492Z,54.39
2016-03-25T05:37:39.418Z,54.11
2016-03-25T05:38:39.404Z,54.11
2016-03-25T05:39:39.423Z,54.78
2016-03-25T05:40:39.426Z,54.3
2016-03-25T05:41:39.443Z,54.78
2016-03-25T05:42:39.446Z,55.16
2016-03-25T05:43:39.481Z,54.68
2016-03-25T05:44:39.495Z,54.68
2016-03-25T05:45:39.498Z,55.35
2016-03-25T05:46:39.501Z,54.97
2016-03-25T05:47:39.519Z,54.49
2016-03-25T05:48:39.366Z,54.39
2016-03-25T05:49:39.524Z,54.39
2016-03-25T05:50:39.544Z,54.11
2016-03-25T05:51:39.561Z,53.83
2016-03-25T05:52:39.579Z,53.64
2016-03-25T05:53:39.817Z,54.02
2016-03-25T05:54:39.585Z,54.3
2016-03-25T05:55:39.602Z,54.11
2016-03-25T05:56:39.622Z,54.87
2016-03-25T05:57:39.640Z,53.92
2016-03-25T05:58:39.648Z,53.45
2016-03-25T05:59:39.651Z,53.73
2016-03-25T06:00:39.653Z,53.73
2016-03-25T06:01:39.514Z,54.02
2016-03-25T06:02:39.674Z,53.73
2016-03-25T06:03:39.692Z,53.35
2016-03-25T06:04:39.710Z,53.16
2016-03-25T06:05:39.713Z,53.16
2016-03-25T06:06:39.715Z,53.26
2016-03-25T06:07:39.734Z,53.45
2016-03-25T06:08:39.940Z,53.73
2016-03-25T06:09:39.755Z,52.69
2016-03-25T06:10:39.789Z,53.26
2016-03-25T06:11:39.792Z,52.87
2016-03-25T06:12:39.794Z,52.78
2016-03-25T06:13:39.798Z,53.35
2016-03-25T06:14:39.816Z,52.69
2016-03-25T06:15:39.818Z,52.69
2016-03-25T06:16:39.837Z,52.22
2016-03-25T06:17:39.870Z,52.69
2016-03-25T06:18:39.857Z,52.59
2016-03-25T06:19:39.875Z,52.4
2016-03-25T06:20:39.878Z,52.22
2016-03-25T06:21:39.897Z,51.93
2016-03-25T06:22:39.899Z,51.74
2016-03-25T06:23:40.058Z,52.22
2016-03-25T06:24:39.936Z,51.74
2016-03-25T06:25:39.938Z,51.74
2016-03-25T06:26:39.973Z,52.14
2016-03-25T06:27:39.976Z,51.55
2016-03-25T06:28:39.962Z,51.39
2016-03-25T06:29:39.996Z,51.48
2016-03-25T06:30:39.999Z,51.2
2016-03-25T06:31:40.017Z,51.1
2016-03-25T06:32:40.035Z,51.01
2016-03-25T06:33:40.038Z,50.72
2016-03-25T06:34:40.057Z,50.53
2016-03-25T06:35:40.060Z,50.53
2016-03-25T06:36:40.078Z,50.81
2016-03-25T06:37:40.081Z,50.81
2016-03-25T06:38:40.115Z,50.53
2016-03-25T06:39:40.101Z,50.91
2016-03-25T06:40:40.119Z,51.1
2016-03-25T06:41:40.123Z,50.91
2016-03-25T06:42:40.141Z,50.43
2016-03-25T06:43:40.143Z,50.05
2016-03-25T06:44:40.162Z,50.81
2016-03-25T06:45:40.164Z,51.1
2016-03-25T06:46:40.183Z,51.01
2016-03-25T06:47:40.201Z,50.91
2016-03-25T06:48:40.203Z,51.01
2016-03-25T06:49:40.222Z,51.01
2016-03-25T06:50:40.225Z,50.15
2016-03-25T06:51:40.243Z,50.93
2016-03-25T06:52:40.261Z,50.56
2016-03-25T06:53:40.342Z,49.7
2016-03-25T06:54:40.298Z,49.51
2016-03-25T06:55:40.317Z,49.98
2016-03-25T06:56:40.319Z,50.18
2016-03-25T06:57:40.337Z,49.98
2016-03-25T06:58:40.324Z,49.7
2016-03-25T06:59:40.343Z,49.7
2016-03-25T07:00:40.360Z,49.98
2016-03-25T07:01:40.379Z,50.46
2016-03-25T07:02:40.382Z,50.08
2016-03-25T07:03:40.385Z,50.56
2016-03-25T07:04:40.465Z,49.6
2016-03-25T07:05:40.421Z,50.08
2016-03-25T07:06:40.439Z,49.98
2016-03-25T07:07:40.442Z,50.37
2016-03-25T07:08:40.492Z,50.18
2016-03-25T07:09:40.464Z,50.08
2016-03-25T07:10:40.325Z,49.32
2016-03-25T07:11:40.485Z,49.04
2016-03-25T07:12:40.503Z,49.89
2016-03-25T07:13:40.505Z,50.46
2016-03-25T07:14:40.523Z,50.74
2016-03-25T07:15:40.542Z,50.08
2016-03-25T07:16:40.591Z,50.74
2016-03-25T07:17:40.563Z,50.08
2016-03-25T07:18:40.581Z,51.03
2016-03-25T07:19:40.599Z,50.27
2016-03-25T07:20:40.619Z,51.31
2016-03-25T07:21:40.621Z,51.79
2016-03-25T07:22:40.623Z,50.65
2016-03-25T07:23:40.736Z,51.41
2016-03-25T07:24:40.644Z,52.45
2016-03-25T07:25:40.537Z,51.31
2016-03-25T07:26:40.696Z,51.62
2016-03-25T07:27:40.683Z,51.15
2016-03-25T07:28:40.702Z,52.58
2016-03-25T07:29:40.705Z,52.1
2016-03-25T07:30:40.739Z,52.67
2016-03-25T07:31:40.741Z,53.05
2016-03-25T07:32:40.760Z,52.1
2016-03-25T07:33:40.762Z,52.48
2016-03-25T07:34:40.781Z,51.82
2016-03-25T07:35:40.798Z,52.39
2016-03-25T07:36:40.802Z,52.67
2016-03-25T07:37:40.820Z,52.76
2016-03-25T07:38:41.010Z,52.96
2016-03-25T07:39:40.841Z,53.63
2016-03-25T07:40:40.859Z,53.72
2016-03-25T07:41:40.877Z,53.15
2016-03-25T07:42:40.896Z,53.43
2016-03-25T07:43:40.898Z,53.63
2016-03-25T07:44:40.933Z,52.76
2016-03-25T07:45:40.951Z,52.01
2016-03-25T07:46:40.939Z,51.62
2016-03-25T07:47:40.941Z,51.53
2016-03-25T07:48:40.959Z,50.96
2016-03-25T07:49:40.978Z,51.91
2016-03-25T07:50:40.980Z,50.58
2016-03-25T07:51:41.014Z,50.68
2016-03-25T07:52:41.032Z,51.56
2016-03-25T07:53:41.035Z,50.89
2016-03-25T07:54:41.038Z,51.72
2016-03-25T07:55:41.072Z,51.93
2016-03-25T07:56:41.074Z,51.06
2016-03-25T07:57:41.076Z,52.03
2016-03-25T07:58:41.110Z,52.13
2016-03-25T07:59:41.145Z,52.7
2016-03-25T08:00:41.116Z,53.46
2016-03-25T08:01:41.134Z,52.8
2016-03-25T08:02:41.153Z,52.13
2016-03-25T08:03:41.155Z,52.7
2016-03-25T08:04:41.173Z,51.56
2016-03-25T08:05:41.223Z,51.65
2016-03-25T08:06:41.210Z,51.75
2016-03-25T08:07:41.213Z,51.65
2016-03-25T08:08:41.231Z,52.03
2016-03-25T08:09:41.234Z,52.61
2016-03-25T08:10:41.268Z,51.08
2016-03-25T08:11:41.270Z,51.08
2016-03-25T08:12:41.289Z,52.03
2016-03-25T08:13:41.307Z,51.65
2016-03-25T08:14:41.309Z,50.89
2016-03-25T08:15:41.328Z,50.89
2016-03-25T08:16:41.331Z,51.46
2016-03-25T08:17:41.365Z,51.56
2016-03-25T08:18:41.367Z,51.18
2016-03-25T08:19:41.370Z,50.6
2016-03-25T08:20:41.405Z,51.27
2016-03-25T08:21:41.422Z,51.27
2016-03-25T08:22:41.425Z,50.79
2016-03-25T08:23:41.428Z,50.99
2016-03-25T08:24:41.477Z,50.7
2016-03-25T08:25:41.464Z,52.22
2016-03-25T08:26:41.467Z,52.13
2016-03-25T08:27:41.501Z,51.37
2016-03-25T08:28:41.504Z,50.89
2016-03-25T08:29:41.522Z,51.46
2016-03-25T08:30:42.743Z,51.08
2016-03-25T08:31:41.544Z,51.27
2016-03-25T08:32:40.812Z,50.35
2016-03-25T08:33:41.580Z,49.37
2016-03-25T08:34:41.599Z,50.25
2016-03-25T08:35:41.632Z,49.3
2016-03-25T08:36:41.635Z,49.08
2016-03-25T08:37:41.637Z,48.82
2016-03-25T08:38:41.640Z,48.54
2016-03-25T08:39:41.658Z,48.92
2016-03-25T08:40:41.692Z,48.25
2016-03-25T08:41:41.679Z,48.06
2016-03-25T08:42:41.698Z,47.39
2016-03-25T08:43:41.717Z,47.49
2016-03-25T08:44:41.734Z,47.11
2016-03-25T08:45:41.753Z,47.3
2016-03-25T08:46:41.756Z,47.87
2016-03-25T08:47:41.773Z,48.16
2016-03-25T08:48:41.792Z,47.39
2016-03-25T08:49:41.826Z,46.83
2016-03-25T08:50:41.845Z,46.92
2016-03-25T08:51:41.832Z,46.83
2016-03-25T08:52:41.850Z,46.63
2016-03-25T08:53:41.869Z,47.11
2016-03-25T08:54:41.871Z,47.2
2016-03-25T08:55:41.889Z,47.02
2016-03-25T08:56:41.908Z,47.11
2016-03-25T08:57:41.910Z,47.68
2016-03-25T08:58:41.944Z,47.58
2016-03-25T08:59:41.946Z,47.78
2016-03-25T09:00:41.965Z,48.06
2016-03-25T09:01:41.968Z,49.11
2016-03-25T09:02:41.986Z,48.16
2016-03-25T09:03:42.005Z,48.44
2016-03-25T09:04:42.054Z,47.97
2016-03-25T09:05:42.025Z,48.06
2016-03-25T09:06:42.059Z,47.97
2016-03-25T09:07:42.077Z,48.25
2016-03-25T09:08:42.079Z,47.39
2016-03-25T09:09:42.082Z,47.71
2016-03-25T09:10:42.117Z,47.13
2016-03-25T09:11:42.120Z,47.23
2016-03-25T09:12:42.137Z,47.13
2016-03-25T09:13:42.140Z,47.04
2016-03-25T09:14:42.175Z,47.13
2016-03-25T09:15:42.178Z,46.94
2016-03-25T09:16:42.195Z,47.32
2016-03-25T09:17:42.214Z,47.23
2016-03-25T09:18:42.248Z,46.75
2016-03-25T09:19:42.235Z,46.09
2016-03-25T09:20:42.253Z,45.99
2016-03-25T09:21:42.272Z,46.66
2016-03-25T09:22:42.290Z,45.99
2016-03-25T09:23:42.309Z,46.18
2016-03-25T09:24:42.311Z,46.84
2016-03-25T09:25:42.330Z,46.84
2016-03-25T09:26:42.348Z,46.56
2016-03-25T09:27:42.350Z,47.49
2016-03-25T09:28:42.369Z,47.23
2016-03-25T09:29:42.387Z,46.73
2016-03-25T09:30:42.405Z,46.83
2016-03-25T09:31:42.408Z,46.84
2016-03-25T09:32:42.427Z,46.75
2016-03-25T09:33:42.476Z,46.75
2016-03-25T09:34:42.463Z,46.18
2016-03-25T09:35:42.482Z,45.51
2016-03-25T09:36:42.499Z,45.51
2016-03-25T09:37:42.502Z,45.32
2016-03-25T09:38:42.521Z,44.85
2016-03-25T09:39:42.523Z,43.8
2016-03-25T09:40:42.557Z,44.46
2016-03-25T09:41:42.559Z,43.71
2016-03-25T09:42:42.579Z,45.04
2016-03-25T09:43:42.581Z,44.94
2016-03-25T09:44:42.599Z,45.42
2016-03-25T09:45:42.618Z,45.61
2016-03-25T09:46:42.651Z,45.7
2016-03-25T09:47:42.638Z,46.84
2016-03-25T09:48:42.687Z,47.04
2016-03-25T09:49:42.690Z,46.09
2016-03-25T09:50:42.709Z,45.51
2016-03-25T09:51:42.711Z,45.32
2016-03-25T09:52:42.731Z,45.14
2016-03-25T09:53:42.733Z,45.04
2016-03-25T09:54:42.750Z,45.14
2016-03-25T09:55:42.770Z,45.7
2016-03-25T09:56:42.772Z,45.89
2016-03-25T09:57:42.806Z,45.42
2016-03-25T09:58:42.808Z,46.18
2016-03-25T09:59:42.828Z,45.89
2016-03-25T10:00:42.830Z,45.61
2016-03-25T10:01:42.848Z,46.37
2016-03-25T10:02:42.898Z,46.66
2016-03-25T10:03:42.885Z,46.66
2016-03-25T10:04:42.888Z,46.56
2016-03-25T10:05:42.906Z,46.18
2016-03-25T10:06:42.924Z,47.23
2016-03-25T10:07:42.943Z,46.28
2016-03-25T10:08:42.945Z,46.28
2016-03-25T10:09:42.979Z,46.84
2016-03-25T10:10:42.982Z,45.89
2016-03-25T10:11:42.999Z,47.52
2016-03-25T10:12:43.018Z,46.47
2016-03-25T10:13:43.021Z,46.09
2016-03-25T10:14:43.040Z,45.61
2016-03-25T10:15:43.057Z,45.8
2016-03-25T10:16:43.091Z,45.23
2016-03-25T10:17:43.095Z,45.42
2016-03-25T10:18:43.097Z,44.75
2016-03-25T10:19:43.115Z,45.51
2016-03-25T10:20:43.118Z,45.99
2016-03-25T10:21:43.137Z,47.61
2016-03-25T10:22:43.154Z,46.94
2016-03-25T10:23:43.188Z,48.47
2016-03-25T10:24:43.192Z,47.8
2016-03-25T10:25:43.194Z,47.52
2016-03-25T10:26:43.212Z,47.42
2016-03-25T10:27:43.246Z,47.13
2016-03-25T10:28:43.249Z,48.94
2016-03-25T10:29:43.251Z,47.63
2016-03-25T10:30:43.269Z,46.97
2016-03-25T10:31:43.319Z,47.44
2016-03-25T10:32:43.306Z,46.97
2016-03-25T10:33:43.324Z,46.87
2016-03-25T10:34:43.343Z,46.49
2016-03-25T10:35:43.346Z,45.73
2016-03-25T10:36:43.363Z,46.01
2016-03-25T10:37:43.382Z,46.11
2016-03-25T10:38:43.401Z,45.83
2016-03-25T10:39:43.403Z,46.18
2016-03-25T10:40:43.437Z,46.47
2016-03-25T10:41:43.440Z,46.87
2016-03-25T10:42:43.457Z,47.13
2016-03-25T10:43:43.460Z,46.84
2016-03-25T10:44:43.495Z,47.82
2016-03-25T10:45:43.512Z,48.47
2016-03-25T10:46:43.531Z,48.78
2016-03-25T10:47:43.534Z,48.78
2016-03-25T10:48:43.537Z,48.39
2016-03-25T10:49:43.555Z,47.92
2016-03-25T10:50:43.573Z,47.73
2016-03-25T10:51:43.592Z,46.97
2016-03-25T10:52:43.609Z,46.01
2016-03-25T10:53:43.612Z,46.3
2016-03-25T10:54:43.631Z,45.63
2016-03-25T10:55:43.649Z,45.44
2016-03-25T10:56:43.652Z,45.73
2016-03-25T10:57:43.670Z,45.25
2016-03-25T10:58:43.688Z,45.42
2016-03-25T10:59:43.707Z,45.99
2016-03-25T11:00:43.725Z,46.75
2016-03-25T11:01:43.743Z,46.18
2016-03-25T11:02:43.746Z,48.21
2016-03-25T11:03:43.764Z,49.32
2016-03-25T11:04:43.783Z,48.18
2016-03-25T11:05:43.785Z,50.11
2016-03-25T11:06:43.819Z,49.26
2016-03-25T11:07:43.822Z,50.97
2016-03-25T11:08:43.840Z,49.26
2016-03-25T11:09:43.843Z,49.71
2016-03-25T11:10:43.877Z,50.94
2016-03-25T11:11:43.895Z,51.89
2016-03-25T11:12:43.898Z,50.3
2016-03-25T11:13:43.916Z,52.09
2016-03-25T11:14:43.934Z,52.2
2016-03-25T11:15:43.937Z,50.3
2016-03-25T11:16:43.956Z,51.64
2016-03-25T11:17:43.973Z,51.45
2016-03-25T11:18:43.992Z,51.16
2016-03-25T11:19:43.995Z,51.25
2016-03-25T11:20:44.014Z,51.06
2016-03-25T11:21:44.031Z,49.44
2016-03-25T11:22:44.081Z,50.11
2016-03-25T11:23:44.068Z,50.21
2016-03-25T11:24:44.087Z,50.59
2016-03-25T11:25:44.090Z,48.78
2016-03-25T11:26:44.108Z,48.11
2016-03-25T11:27:44.126Z,48.21
2016-03-25T11:28:44.145Z,48.02
2016-03-25T11:29:44.148Z,48.68
2016-03-25T11:30:44.166Z,49.06
2016-03-25T11:31:44.184Z,49.06
2016-03-25T11:32:44.203Z,49.06
2016-03-25T11:33:44.220Z,48.3
2016-03-25T11:34:44.223Z,48.97
2016-03-25T11:35:44.242Z,50.4
2016-03-25T11:36:44.275Z,48.87
2016-03-25T11:37:44.294Z,51.35
2016-03-25T11:38:44.281Z,50.78
2016-03-25T11:39:44.300Z,50.21
2016-03-25T11:40:44.399Z,52.2
2016-03-25T11:41:44.353Z,51.06
2016-03-25T11:42:44.197Z,49.73
2016-03-25T11:43:44.579Z,49.44
2016-03-25T11:44:44.430Z,50.78
2016-03-25T11:45:44.386Z,50.21
2016-03-25T11:46:44.404Z,50.59
2016-03-25T11:47:44.423Z,50.4
2016-03-25T11:48:44.440Z,51.51
2016-03-25T11:49:44.443Z,51.04
2016-03-25T11:50:44.462Z,53.23
2016-03-25T11:51:44.495Z,53.52
2016-03-25T11:52:44.482Z,53.42
2016-03-25T11:53:44.500Z,53.32
2016-03-25T11:54:44.538Z,53.8
2016-03-25T11:55:44.515Z,52.94
2016-03-25T11:56:44.506Z,52.37
2016-03-25T11:57:44.513Z,53.04
2016-03-25T11:58:44.511Z,54.27
2016-03-25T11:59:44.541Z,54.18
2016-03-25T12:00:44.555Z,54.47
2016-03-25T12:01:44.554Z,55.22
2016-03-25T12:02:44.567Z,55.04
2016-03-25T12:03:44.584Z,53.52
2016-03-25T12:04:44.586Z,53.04
2016-03-25T12:05:44.619Z,52.84
2016-03-25T12:06:44.620Z,52.75
2016-03-25T12:07:44.622Z,52.37
2016-03-25T12:08:44.639Z,52.09
2016-03-25T12:09:44.657Z,51.04
2016-03-25T12:10:44.674Z,51.42
2016-03-25T12:11:44.692Z,51.04
2016-03-25T12:12:44.694Z,52.18
2016-03-25T12:13:44.728Z,52.37
2016-03-25T12:14:44.731Z,52.47
2016-03-25T12:15:44.795Z,53.04
2016-03-25T12:16:44.798Z,53.52
2016-03-25T12:17:44.770Z,54.47
2016-03-25T12:18:44.788Z,52.28
2016-03-25T12:19:44.822Z,53.8
2016-03-25T12:20:44.825Z,53.23
2016-03-25T12:21:44.827Z,55.51
2016-03-25T12:22:44.847Z,55.22
2016-03-25T12:23:44.864Z,54.94
2016-03-25T12:24:44.742Z,55.22
2016-03-25T12:25:44.885Z,54.27
2016-03-25T12:26:44.903Z,55.87
2016-03-25T12:27:44.921Z,56.15
2016-03-25T12:28:44.924Z,55.58
2016-03-25T12:29:44.943Z,57.1
2016-03-25T12:30:44.976Z,57.87
2016-03-25T12:31:44.980Z,57.48
2016-03-25T12:32:44.998Z,57.77
2016-03-25T12:33:45.015Z,58.34
2016-03-25T12:34:45.035Z,58.15
2016-03-25T12:35:45.037Z,59.48
2016-03-25T12:36:45.055Z,59.01
2016-03-25T12:37:45.057Z,58.34
2016-03-25T12:38:45.076Z,58.81
2016-03-25T12:39:45.126Z,58.15
2016-03-25T12:40:45.098Z,59.01
2016-03-25T12:41:45.115Z,61
2016-03-25T12:42:45.134Z,58.25
2016-03-25T12:43:45.153Z,59.1
2016-03-25T12:44:45.155Z,59.29
2016-03-25T12:45:45.173Z,60.34
2016-03-25T12:46:45.191Z,61.29
2016-03-25T12:47:45.210Z,59.96
2016-03-25T12:48:45.212Z,59.39
2016-03-25T12:49:45.247Z,58.62
2016-03-25T12:50:45.249Z,59.1
2016-03-25T12:51:45.252Z,60.24
2016-03-25T12:52:45.302Z,61.19
2016-03-25T12:53:45.304Z,59.48
2016-03-25T12:54:45.338Z,59.39
2016-03-25T12:55:45.325Z,60.24